Forside
METAR-TAF:

METAR-TAF

Lufthavne :

Athen Internationale Lufthavn

Athen, Grækenland

Breddekreds: 37-56N, længdekreds: 023-56E, højde: 94 m

Aktuelle vejr

Denne rapport blev lavet for 21 minutter siden, kl. 12:50 UTC
Vind 15 kt fra sydsydvest
Temperatur 30°C
Fugtighed 33%
Tryk 1011 hPa
Sigt 10 km eller mere
Nogle få skyer i en højde af 3000 ft
Spredte skyer i en højde af 7000 ft

METAR: LGAV 221250Z 20015KT 9999 FEW030 SCT070 30/12 Q1011 NOSIG

Tid: 16:11 (13:11 UTC)

Vejrudsigter

Denne rapport blev lavet for 2 timer og 11 minutter siden, kl. 11:00 UTC
Foreløbig gælder fra 22 på 12 UTC til 23 på 12 UTC
Vind 15 kt fra sydsydøst
Sigt 10 km eller mere
Nogle få skyer i en højde af 2000 ft
Spredte skyer i en højde af 3000 ft
ændring
fra 22 på 12 UTC til 22 på 14 UTC
Vind 15 kt fra vest

TAF: LGAV 221100Z 2212/2312 16015KT 9999 FEW020 SCT030 BECMG 2212/2214 26015KT

Vejrobservationer og prognoser fra mere end 4000 lufthavne (METAR og TAF).

De gule og røde prikker repræsenterer de meteorologiske stationer.

Flyt musen over at se navnet på stationen.

Så klik over at se vejr observationer og prognoser.

At skifte det kort: Klik på de grønne knapper med et sort kors for at zoome ind; på den grønne knap med en bindestreg for at zoome ud; eller på de grønne pile for tilstødende kort.


METAR-TAF: